Bexley, United Kingdom
Current Conditions -  °F | °C
As of 3:50 PM on Tuesday 21 Oct 2014 (Local Time) from EGLC Reporting Station
Scattered Clouds Scattered Clouds  
Wind Chill: 57°   Ceiling: Unl
Heat Index: 57°   Visibility: 6mi
Dew Point: 37°   Wind: 31mph
Humidity: 48%   Direction: 280°W
Pressure: 29.77"   Gusts: 45mph
Location:  51.44°N, 0.15°E
Report Text: EGLC 211450Z 28027G39KT 9999 SCT045CB 14/03 Q1008
Loading
Personal Weather Stations






























Interactive Weather Map
Tropical Storm Tracking
New forecast layout! Learn more

10-Day Weather Forecast

Advertisements
Track Severe Weather on mobile